Ivujivik

Current Flights

Departures
Number Departure To Airline
 3H803 11:20  Akulivik  Air Inuit
 3H802 16:45  Salluit  Air Inuit
 3H809 11:20  Akulivik  Air Inuit
 3H808 17:25  Salluit  Air Inuit
 3H803 11:20  Akulivik  Air Inuit
 3H802 16:45  Salluit  Air Inuit
Arrivals
Number Arrival From Airline
 3H803 11:00  Salluit  Air Inuit
 3H802 16:25  Akulivik  Air Inuit
 3H809 11:00  Salluit  Air Inuit
 3H808 17:05  Akulivik  Air Inuit
 3H803 11:00  Salluit  Air Inuit
 3H802 16:25  Akulivik  Air Inuit
Info
Name: Ivujivik
Identifier:  YIK/CYIK
Local Time:  21. May 10:47
City
Ivujivik
  Canada

Flights per Day
2 flights
Distance: 151km (94mi)
Punctuality
94% (0 flights per day delayed)
Delay Average: 172 minutes
Current Weather
 -1 C (Humidity: 92%)
  11kt (20km/h / 12mph) from 40°
  Few clouds at 800 feet (243 meter)
  Broken clouds at 1,500 feet (457 meter)
  12km (8 mi.)
 Light/Moderate: Snow Grains
 METAR CYIK 201200Z 04011KT 8SM -SG FEW008 BKN015 M01/M02 A3021 RMK SF1ST7 SF TR SN CVR NIL LAST STFD OBS/NEXT 211200UTC SLP234

Current Delays

Departures
N/A
Arrivals
N/A

Destinations

Top Destinations
Airport Flights
per week
Seats
per week
  Salluit (YZG) 7 609 1 87
  Puvirnituq (YPX) <1 21 0 3
  Kangiqsujuaq (YWB) <1 7 0 1

Airlines & Planes

Top Airlines
Airline Flights
per Day
Seats
per Day
  Air Inuit 3 176
Top Plane Types
Manufacturer Model Flights Seats
Bombardier Dash 8-300 3.8/day 169/day 169.5
Bombardier Dash 8-400 0.1/day 6/day 6
De Havilland DHC-6 0.0/day - 0